sensor_id;sensor_type;location;lat;lon;timestamp;P1;durP1;ratioP1;P2;durP2;ratioP2
20095;SDS011;10207;50.942;6.900;2022-10-23T00:03:55;7.95;;;3.35;;
20095;SDS011;10207;50.942;6.900;2022-10-23T00:06:21;7.45;;;2.53;;
20095;SDS011;10207;50.942;6.900;2022-10-23T00:08:47;7.60;;;2.70;;
20095;SDS011;10207;50.942;6.900;2022-10-23T00:11:14;10.82;;;3.13;;
20095;SDS011;10207;50.942;6.900;2022-10-23T00:13:40;7.30;;;2.78;;
20095;SDS011;10207;50.942;6.900;2022-10-23T00:16:06;9.32;;;3.20;;
20095;SDS011;10207;50.942;6.900;2022-10-23T00:18:32;8.63;;;2.88;;
20095;SDS011;10207;50.942;6.900;2022-10-23T00:20:57;10.90;;;2.90;;
20095;SDS011;10207;50.942;6.900;2022-10-23T00:23:23;15.73;;;2.88;;
20095;SDS011;10207;50.942;6.900;2022-10-23T00:25:49;9.77;;;3.28;;
20095;SDS011;10207;50.942;6.900;2022-10-23T00:28:14;10.77;;;3.10;;
20095;SDS011;10207;50.942;6.900;2022-10-23T00:30:40;7.47;;;2.55;;
20095;SDS011;10207;50.942;6.900;2022-10-23T00:33:06;10.98;;;2.60;;
20095;SDS011;10207;50.942;6.900;2022-10-23T00:35:32;9.02;;;3.05;;
20095;SDS011;10207;50.942;6.900;2022-10-23T00:37:58;8.90;;;2.65;;
20095;SDS011;10207;50.942;6.900;2022-10-23T00:40:24;9.43;;;3.13;;
20095;SDS011;10207;50.942;6.900;2022-10-23T00:42:50;8.95;;;3.10;;
20095;SDS011;10207;50.942;6.900;2022-10-23T00:45:20;7.72;;;3.03;;
20095;SDS011;10207;50.942;6.900;2022-10-23T00:47:46;11.35;;;3.10;;
20095;SDS011;10207;50.942;6.900;2022-10-23T00:50:12;8.85;;;3.00;;
20095;SDS011;10207;50.942;6.900;2022-10-23T00:52:39;10.27;;;3.15;;
20095;SDS011;10207;50.942;6.900;2022-10-23T00:55:07;5.85;;;2.80;;
20095;SDS011;10207;50.942;6.900;2022-10-23T00:57:33;7.53;;;2.88;;
20095;SDS011;10207;50.942;6.900;2022-10-23T00:59:58;14.20;;;3.05;;
20095;SDS011;10207;50.942;6.900;2022-10-23T01:02:24;9.77;;;3.17;;
20095;SDS011;10207;50.942;6.900;2022-10-23T01:04:50;9.82;;;3.08;;
20095;SDS011;10207;50.942;6.900;2022-10-23T01:07:21;8.60;;;2.60;;
20095;SDS011;10207;50.942;6.900;2022-10-23T01:10:04;8.25;;;2.15;;
20095;SDS011;10207;50.942;6.900;2022-10-23T01:12:34;9.20;;;3.08;;
20095;SDS011;10207;50.942;6.900;2022-10-23T01:15:13;8.40;;;2.17;;
20095;SDS011;10207;50.942;6.900;2022-10-23T01:17:46;9.02;;;3.03;;
20095;SDS011;10207;50.942;6.900;2022-10-23T01:28:11;10.90;;;2.15;;
20095;SDS011;10207;50.942;6.900;2022-10-23T01:30:41;8.60;;;2.03;;
20095;SDS011;10207;50.942;6.900;2022-10-23T01:33:12;4.30;;;2.40;;
20095;SDS011;10207;50.942;6.900;2022-10-23T01:35:49;4.70;;;2.35;;
20095;SDS011;10207;50.942;6.900;2022-10-23T01:38:25;7.57;;;2.50;;
20095;SDS011;10207;50.942;6.900;2022-10-23T01:40:56;10.50;;;3.30;;
20095;SDS011;10207;50.942;6.900;2022-10-23T01:43:27;12.48;;;3.22;;
20095;SDS011;10207;50.942;6.900;2022-10-23T01:45:55;4.53;;;2.53;;
20095;SDS011;10207;50.942;6.900;2022-10-23T01:48:25;7.68;;;2.35;;
20095;SDS011;10207;50.942;6.900;2022-10-23T01:50:52;8.93;;;2.28;;
20095;SDS011;10207;50.942;6.900;2022-10-23T01:53:19;18.15;;;3.80;;
20095;SDS011;10207;50.942;6.900;2022-10-23T01:55:45;6.75;;;2.88;;
20095;SDS011;10207;50.942;6.900;2022-10-23T01:58:18;5.80;;;2.50;;
20095;SDS011;10207;50.942;6.900;2022-10-23T02:00:45;9.07;;;3.35;;
20095;SDS011;10207;50.942;6.900;2022-10-23T02:03:12;12.60;;;2.60;;
20095;SDS011;10207;50.942;6.900;2022-10-23T02:05:40;5.20;;;1.90;;
20095;SDS011;10207;50.942;6.900;2022-10-23T02:08:06;9.68;;;2.78;;
20095;SDS011;10207;50.942;6.900;2022-10-23T02:10:33;7.25;;;2.70;;
20095;SDS011;10207;50.942;6.900;2022-10-23T02:13:04;7.57;;;2.55;;
20095;SDS011;10207;50.942;6.900;2022-10-23T02:15:33;5.45;;;2.15;;
20095;SDS011;10207;50.942;6.900;2022-10-23T02:18:07;6.50;;;2.45;;
20095;SDS011;10207;50.942;6.900;2022-10-23T02:23:06;12.75;;;2.70;;
20095;SDS011;10207;50.942;6.900;2022-10-23T02:25:37;10.50;;;2.30;;
20095;SDS011;10207;50.942;6.900;2022-10-23T02:28:08;7.13;;;2.25;;
20095;SDS011;10207;50.942;6.900;2022-10-23T02:30:41;10.50;;;2.88;;
20095;SDS011;10207;50.942;6.900;2022-10-23T02:33:10;6.60;;;2.42;;
20095;SDS011;10207;50.942;6.900;2022-10-23T02:35:37;8.32;;;2.72;;
20095;SDS011;10207;50.942;6.900;2022-10-23T02:38:36;4.53;;;2.13;;
20095;SDS011;10207;50.942;6.900;2022-10-23T02:43:39;6.63;;;2.17;;
20095;SDS011;10207;50.942;6.900;2022-10-23T02:46:09;7.82;;;3.17;;
20095;SDS011;10207;50.942;6.900;2022-10-23T02:48:43;10.27;;;3.10;;
20095;SDS011;10207;50.942;6.900;2022-10-23T02:51:14;6.70;;;2.22;;
20095;SDS011;10207;50.942;6.900;2022-10-23T02:53:48;3.92;;;2.03;;
20095;SDS011;10207;50.942;6.900;2022-10-23T02:56:27;7.65;;;2.42;;
20095;SDS011;10207;50.942;6.900;2022-10-23T03:01:31;8.13;;;2.03;;
20095;SDS011;10207;50.942;6.900;2022-10-23T03:04:01;3.22;;;1.92;;
20095;SDS011;10207;50.942;6.900;2022-10-23T03:06:27;8.80;;;2.30;;
20095;SDS011;10207;50.942;6.900;2022-10-23T03:09:00;8.30;;;2.45;;
20095;SDS011;10207;50.942;6.900;2022-10-23T03:11:26;7.82;;;2.17;;
20095;SDS011;10207;50.942;6.900;2022-10-23T03:13:54;8.43;;;2.15;;
20095;SDS011;10207;50.942;6.900;2022-10-23T03:16:20;8.77;;;2.45;;
20095;SDS011;10207;50.942;6.900;2022-10-23T03:18:50;5.82;;;2.33;;
20095;SDS011;10207;50.942;6.900;2022-10-23T03:21:16;9.02;;;2.20;;
20095;SDS011;10207;50.942;6.900;2022-10-23T03:23:42;8.10;;;2.30;;
20095;SDS011;10207;50.942;6.900;2022-10-23T03:26:13;8.00;;;2.55;;
20095;SDS011;10207;50.942;6.900;2022-10-23T03:28:41;10.27;;;2.47;;
20095;SDS011;10207;50.942;6.900;2022-10-23T03:31:07;3.60;;;1.85;;
20095;SDS011;10207;50.942;6.900;2022-10-23T03:33:33;8.00;;;2.50;;
20095;SDS011;10207;50.942;6.900;2022-10-23T03:36:06;5.70;;;2.25;;
20095;SDS011;10207;50.942;6.900;2022-10-23T03:38:33;7.78;;;2.28;;
20095;SDS011;10207;50.942;6.900;2022-10-23T03:41:00;7.10;;;2.40;;
20095;SDS011;10207;50.942;6.900;2022-10-23T03:43:27;7.15;;;2.20;;
20095;SDS011;10207;50.942;6.900;2022-10-23T03:45:54;13.27;;;2.30;;
20095;SDS011;10207;50.942;6.900;2022-10-23T03:48:22;8.00;;;2.20;;
20095;SDS011;10207;50.942;6.900;2022-10-23T03:50:49;9.48;;;2.88;;
20095;SDS011;10207;50.942;6.900;2022-10-23T03:53:15;5.97;;;2.25;;
20095;SDS011;10207;50.942;6.900;2022-10-23T03:55:42;7.30;;;2.03;;
20095;SDS011;10207;50.942;6.900;2022-10-23T03:58:08;7.63;;;2.72;;
20095;SDS011;10207;50.942;6.900;2022-10-23T04:00:34;5.45;;;2.08;;
20095;SDS011;10207;50.942;6.900;2022-10-23T04:03:00;6.25;;;1.50;;
20095;SDS011;10207;50.942;6.900;2022-10-23T04:05:27;7.80;;;2.00;;
20095;SDS011;10207;50.942;6.900;2022-10-23T04:07:55;4.63;;;1.80;;
20095;SDS011;10207;50.942;6.900;2022-10-23T04:10:21;5.55;;;1.92;;
20095;SDS011;10207;50.942;6.900;2022-10-23T04:12:47;8.68;;;2.00;;
20095;SDS011;10207;50.942;6.900;2022-10-23T04:15:13;5.80;;;1.80;;
20095;SDS011;10207;50.942;6.900;2022-10-23T04:17:41;5.18;;;1.77;;
20095;SDS011;10207;50.942;6.900;2022-10-23T04:20:07;3.75;;;1.83;;
20095;SDS011;10207;50.942;6.900;2022-10-23T04:22:33;7.65;;;1.88;;
20095;SDS011;10207;50.942;6.900;2022-10-23T04:24:59;8.85;;;2.40;;
20095;SDS011;10207;50.942;6.900;2022-10-23T04:27:25;4.78;;;1.70;;
20095;SDS011;10207;50.942;6.900;2022-10-23T04:29:51;8.32;;;2.10;;
20095;SDS011;10207;50.942;6.900;2022-10-23T04:32:17;8.25;;;1.55;;
20095;SDS011;10207;50.942;6.900;2022-10-23T04:34:43;4.78;;;2.28;;
20095;SDS011;10207;50.942;6.900;2022-10-23T04:37:09;8.80;;;2.28;;
20095;SDS011;10207;50.942;6.900;2022-10-23T04:39:34;3.20;;;1.92;;
20095;SDS011;10207;50.942;6.900;2022-10-23T04:42:00;5.18;;;2.03;;
20095;SDS011;10207;50.942;6.900;2022-10-23T04:44:26;5.57;;;1.85;;
20095;SDS011;10207;50.942;6.900;2022-10-23T04:46:52;5.10;;;2.40;;
20095;SDS011;10207;50.942;6.900;2022-10-23T04:49:17;3.03;;;1.48;;
20095;SDS011;10207;50.942;6.900;2022-10-23T04:52:06;7.55;;;2.33;;
20095;SDS011;10207;50.942;6.900;2022-10-23T04:55:01;6.18;;;1.85;;
20095;SDS011;10207;50.942;6.900;2022-10-23T04:57:38;6.18;;;1.70;;
20095;SDS011;10207;50.942;6.900;2022-10-23T05:00:08;8.32;;;1.90;;
20095;SDS011;10207;50.942;6.900;2022-10-23T05:03:04;5.00;;;1.85;;
20095;SDS011;10207;50.942;6.900;2022-10-23T05:05:35;7.78;;;1.90;;
20095;SDS011;10207;50.942;6.900;2022-10-23T05:08:06;13.15;;;2.47;;
20095;SDS011;10207;50.942;6.900;2022-10-23T05:11:07;9.75;;;2.00;;
20095;SDS011;10207;50.942;6.900;2022-10-23T05:13:38;4.15;;;1.75;;
20095;SDS011;10207;50.942;6.900;2022-10-23T05:16:04;6.05;;;1.95;;
20095;SDS011;10207;50.942;6.900;2022-10-23T05:18:31;3.22;;;1.17;;
20095;SDS011;10207;50.942;6.900;2022-10-23T05:21:04;11.10;;;1.80;;
20095;SDS011;10207;50.942;6.900;2022-10-23T05:23:31;5.60;;;1.73;;
20095;SDS011;10207;50.942;6.900;2022-10-23T05:26:00;4.15;;;1.55;;
20095;SDS011;10207;50.942;6.900;2022-10-23T05:28:29;5.65;;;1.30;;
20095;SDS011;10207;50.942;6.900;2022-10-23T05:30:56;4.82;;;1.67;;
20095;SDS011;10207;50.942;6.900;2022-10-23T05:33:25;4.55;;;1.90;;
20095;SDS011;10207;50.942;6.900;2022-10-23T05:35:51;6.43;;;1.73;;
20095;SDS011;10207;50.942;6.900;2022-10-23T05:38:19;2.65;;;1.17;;
20095;SDS011;10207;50.942;6.900;2022-10-23T05:40:45;8.70;;;1.80;;
20095;SDS011;10207;50.942;6.900;2022-10-23T05:43:16;7.15;;;1.70;;
20095;SDS011;10207;50.942;6.900;2022-10-23T05:45:48;7.57;;;1.48;;
20095;SDS011;10207;50.942;6.900;2022-10-23T05:48:24;7.65;;;1.50;;
20095;SDS011;10207;50.942;6.900;2022-10-23T05:51:06;2.67;;;1.48;;
20095;SDS011;10207;50.942;6.900;2022-10-23T05:53:43;5.90;;;2.13;;
20095;SDS011;10207;50.942;6.900;2022-10-23T05:56:41;4.70;;;1.63;;
20095;SDS011;10207;50.942;6.900;2022-10-23T05:59:17;4.95;;;2.25;;
20095;SDS011;10207;50.942;6.900;2022-10-23T06:01:51;6.00;;;1.73;;
20095;SDS011;10207;50.942;6.900;2022-10-23T06:04:39;3.88;;;1.77;;
20095;SDS011;10207;50.942;6.900;2022-10-23T06:07:05;4.78;;;1.95;;
20095;SDS011;10207;50.942;6.900;2022-10-23T06:09:31;5.60;;;1.50;;
20095;SDS011;10207;50.942;6.900;2022-10-23T06:11:57;5.95;;;1.60;;
20095;SDS011;10207;50.942;6.900;2022-10-23T06:14:23;13.73;;;2.63;;
20095;SDS011;10207;50.942;6.900;2022-10-23T06:16:50;5.07;;;1.88;;
20095;SDS011;10207;50.942;6.900;2022-10-23T06:19:17;4.47;;;1.80;;
20095;SDS011;10207;50.942;6.900;2022-10-23T06:21:43;6.13;;;1.80;;
20095;SDS011;10207;50.942;6.900;2022-10-23T06:24:12;9.38;;;2.95;;
20095;SDS011;10207;50.942;6.900;2022-10-23T06:26:51;5.22;;;2.00;;
20095;SDS011;10207;50.942;6.900;2022-10-23T06:29:31;9.55;;;2.30;;
20095;SDS011;10207;50.942;6.900;2022-10-23T06:31:57;8.45;;;1.50;;
20095;SDS011;10207;50.942;6.900;2022-10-23T06:34:22;4.55;;;1.40;;
20095;SDS011;10207;50.942;6.900;2022-10-23T06:36:48;5.75;;;1.70;;
20095;SDS011;10207;50.942;6.900;2022-10-23T06:39:27;4.03;;;1.20;;
20095;SDS011;10207;50.942;6.900;2022-10-23T06:42:11;4.15;;;1.85;;
20095;SDS011;10207;50.942;6.900;2022-10-23T06:44:55;6.75;;;1.33;;
20095;SDS011;10207;50.942;6.900;2022-10-23T06:47:44;3.38;;;1.65;;
20095;SDS011;10207;50.942;6.900;2022-10-23T06:50:47;1.33;;;0.95;;
20095;SDS011;10207;50.942;6.900;2022-10-23T06:53:18;4.03;;;1.10;;
20095;SDS011;10207;50.942;6.900;2022-10-23T06:55:50;4.45;;;1.45;;
20095;SDS011;10207;50.942;6.900;2022-10-23T06:58:16;8.27;;;1.52;;
20095;SDS011;10207;50.942;6.900;2022-10-23T07:00:59;3.85;;;1.48;;
20095;SDS011;10207;50.942;6.900;2022-10-23T07:03:25;5.00;;;1.40;;
20095;SDS011;10207;50.942;6.900;2022-10-23T07:05:51;4.13;;;1.45;;
20095;SDS011;10207;50.942;6.900;2022-10-23T07:08:19;9.20;;;2.17;;
20095;SDS011;10207;50.942;6.900;2022-10-23T07:10:49;10.25;;;1.83;;
20095;SDS011;10207;50.942;6.900;2022-10-23T07:13:17;9.25;;;1.83;;
20095;SDS011;10207;50.942;6.900;2022-10-23T07:16:07;6.75;;;2.33;;
20095;SDS011;10207;50.942;6.900;2022-10-23T07:18:33;5.32;;;1.02;;
20095;SDS011;10207;50.942;6.900;2022-10-23T07:21:19;5.18;;;1.83;;
20095;SDS011;10207;50.942;6.900;2022-10-23T07:23:46;4.97;;;1.73;;
20095;SDS011;10207;50.942;6.900;2022-10-23T07:26:13;4.72;;;1.65;;
20095;SDS011;10207;50.942;6.900;2022-10-23T07:28:40;4.00;;;1.52;;
20095;SDS011;10207;50.942;6.900;2022-10-23T07:31:06;3.13;;;1.23;;
20095;SDS011;10207;50.942;6.900;2022-10-23T07:33:58;4.43;;;1.38;;
20095;SDS011;10207;50.942;6.900;2022-10-23T07:36:24;2.80;;;1.10;;
20095;SDS011;10207;50.942;6.900;2022-10-23T07:38:50;8.50;;;1.60;;
20095;SDS011;10207;50.942;6.900;2022-10-23T07:41:16;3.75;;;1.42;;
20095;SDS011;10207;50.942;6.900;2022-10-23T07:43:43;6.95;;;1.55;;
20095;SDS011;10207;50.942;6.900;2022-10-23T07:46:08;3.28;;;1.05;;
20095;SDS011;10207;50.942;6.900;2022-10-23T07:48:37;2.83;;;1.20;;
20095;SDS011;10207;50.942;6.900;2022-10-23T07:51:07;5.18;;;1.40;;
20095;SDS011;10207;50.942;6.900;2022-10-23T07:53:40;1.48;;;1.00;;
20095;SDS011;10207;50.942;6.900;2022-10-23T07:56:20;2.80;;;1.52;;
20095;SDS011;10207;50.942;6.900;2022-10-23T07:59:05;7.53;;;1.88;;
20095;SDS011;10207;50.942;6.900;2022-10-23T08:01:33;8.20;;;1.65;;
20095;SDS011;10207;50.942;6.900;2022-10-23T08:03:59;3.00;;;1.05;;
20095;SDS011;10207;50.942;6.900;2022-10-23T08:06:25;3.85;;;1.30;;
20095;SDS011;10207;50.942;6.900;2022-10-23T08:08:51;3.40;;;1.60;;
20095;SDS011;10207;50.942;6.900;2022-10-23T08:11:19;4.65;;;1.27;;
20095;SDS011;10207;50.942;6.900;2022-10-23T08:13:50;8.88;;;1.70;;
20095;SDS011;10207;50.942;6.900;2022-10-23T08:16:15;5.00;;;2.38;;
20095;SDS011;10207;50.942;6.900;2022-10-23T08:18:53;4.63;;;1.30;;
20095;SDS011;10207;50.942;6.900;2022-10-23T08:21:19;4.93;;;1.92;;
20095;SDS011;10207;50.942;6.900;2022-10-23T08:23:45;4.07;;;1.20;;
20095;SDS011;10207;50.942;6.900;2022-10-23T08:26:11;5.22;;;1.52;;
20095;SDS011;10207;50.942;6.900;2022-10-23T08:28:37;2.92;;;1.80;;
20095;SDS011;10207;50.942;6.900;2022-10-23T08:31:07;6.22;;;1.73;;
20095;SDS011;10207;50.942;6.900;2022-10-23T08:33:33;2.47;;;1.20;;
20095;SDS011;10207;50.942;6.900;2022-10-23T08:35:59;4.63;;;1.48;;
20095;SDS011;10207;50.942;6.900;2022-10-23T08:38:30;7.32;;;1.45;;
20095;SDS011;10207;50.942;6.900;2022-10-23T08:40:58;6.43;;;1.33;;
20095;SDS011;10207;50.942;6.900;2022-10-23T08:44:10;2.75;;;1.20;;
20095;SDS011;10207;50.942;6.900;2022-10-23T08:46:41;5.80;;;1.60;;
20095;SDS011;10207;50.942;6.900;2022-10-23T08:49:38;5.10;;;1.10;;
20095;SDS011;10207;50.942;6.900;2022-10-23T08:52:07;2.53;;;1.00;;
20095;SDS011;10207;50.942;6.900;2022-10-23T08:57:20;6.35;;;2.55;;
20095;SDS011;10207;50.942;6.900;2022-10-23T08:59:48;3.00;;;1.13;;
20095;SDS011;10207;50.942;6.900;2022-10-23T09:04:45;5.93;;;1.20;;
20095;SDS011;10207;50.942;6.900;2022-10-23T09:07:18;4.85;;;1.23;;
20095;SDS011;10207;50.942;6.900;2022-10-23T09:09:50;6.47;;;1.08;;
20095;SDS011;10207;50.942;6.900;2022-10-23T09:12:20;5.38;;;1.45;;
20095;SDS011;10207;50.942;6.900;2022-10-23T09:17:32;2.78;;;1.17;;
20095;SDS011;10207;50.942;6.900;2022-10-23T09:20:10;3.63;;;1.05;;
20095;SDS011;10207;50.942;6.900;2022-10-23T09:22:37;3.38;;;1.70;;
20095;SDS011;10207;50.942;6.900;2022-10-23T09:25:07;3.90;;;1.08;;
20095;SDS011;10207;50.942;6.900;2022-10-23T09:27:33;6.65;;;1.05;;
20095;SDS011;10207;50.942;6.900;2022-10-23T09:29:59;7.53;;;1.40;;
20095;SDS011;10207;50.942;6.900;2022-10-23T09:32:34;6.82;;;1.15;;
20095;SDS011;10207;50.942;6.900;2022-10-23T09:35:00;5.50;;;1.85;;
20095;SDS011;10207;50.942;6.900;2022-10-23T09:37:27;2.65;;;1.15;;
20095;SDS011;10207;50.942;6.900;2022-10-23T09:40:00;2.40;;;1.08;;
20095;SDS011;10207;50.942;6.900;2022-10-23T09:42:27;4.40;;;1.00;;
20095;SDS011;10207;50.942;6.900;2022-10-23T09:44:53;8.55;;;1.27;;
20095;SDS011;10207;50.942;6.900;2022-10-23T09:47:21;4.25;;;1.13;;
20095;SDS011;10207;50.942;6.900;2022-10-23T09:49:52;5.88;;;1.42;;
20095;SDS011;10207;50.942;6.900;2022-10-23T09:52:22;9.32;;;1.10;;
20095;SDS011;10207;50.942;6.900;2022-10-23T09:54:55;4.55;;;1.20;;
20095;SDS011;10207;50.942;6.900;2022-10-23T09:59:51;4.85;;;1.00;;
20095;SDS011;10207;50.942;6.900;2022-10-23T10:05:31;5.97;;;1.77;;
20095;SDS011;10207;50.942;6.900;2022-10-23T10:10:38;2.42;;;1.00;;
20095;SDS011;10207;50.942;6.900;2022-10-23T10:13:07;5.18;;;0.95;;
20095;SDS011;10207;50.942;6.900;2022-10-23T10:18:04;4.97;;;0.95;;
20095;SDS011;10207;50.942;6.900;2022-10-23T10:23:17;6.75;;;1.00;;
20095;SDS011;10207;50.942;6.900;2022-10-23T10:25:57;1.50;;;0.77;;
20095;SDS011;10207;50.942;6.900;2022-10-23T10:28:44;1.20;;;0.50;;
20095;SDS011;10207;50.942;6.900;2022-10-23T10:31:21;2.40;;;1.02;;
20095;SDS011;10207;50.942;6.900;2022-10-23T10:34:01;3.88;;;0.93;;
20095;SDS011;10207;50.942;6.900;2022-10-23T10:36:38;5.70;;;0.85;;
20095;SDS011;10207;50.942;6.900;2022-10-23T10:41:55;1.92;;;0.70;;
20095;SDS011;10207;50.942;6.900;2022-10-23T10:44:43;3.50;;;0.75;;
20095;SDS011;10207;50.942;6.900;2022-10-23T10:49:39;3.78;;;0.80;;
20095;SDS011;10207;50.942;6.900;2022-10-23T10:57:39;5.07;;;1.23;;
20095;SDS011;10207;50.942;6.900;2022-10-23T11:00:13;3.58;;;0.80;;
20095;SDS011;10207;50.942;6.900;2022-10-23T11:02:41;4.60;;;0.95;;
20095;SDS011;10207;50.942;6.900;2022-10-23T11:07:36;2.45;;;0.88;;
20095;SDS011;10207;50.942;6.900;2022-10-23T11:10:11;5.57;;;1.15;;
20095;SDS011;10207;50.942;6.900;2022-10-23T11:12:38;3.00;;;0.73;;
20095;SDS011;10207;50.942;6.900;2022-10-23T11:15:11;34.80;;;1.38;;
20095;SDS011;10207;50.942;6.900;2022-10-23T11:17:37;3.45;;;1.42;;
20095;SDS011;10207;50.942;6.900;2022-10-23T11:22:34;2.60;;;1.27;;
20095;SDS011;10207;50.942;6.900;2022-10-23T11:35:23;4.93;;;1.00;;
20095;SDS011;10207;50.942;6.900;2022-10-23T11:40:36;3.38;;;1.20;;
20095;SDS011;10207;50.942;6.900;2022-10-23T11:43:08;2.10;;;0.85;;
20095;SDS011;10207;50.942;6.900;2022-10-23T11:45:35;2.15;;;0.82;;
20095;SDS011;10207;50.942;6.900;2022-10-23T11:48:05;4.40;;;1.25;;
20095;SDS011;10207;50.942;6.900;2022-10-23T11:50:32;3.40;;;1.42;;
20095;SDS011;10207;50.942;6.900;2022-10-23T11:52:59;3.03;;;0.90;;
20095;SDS011;10207;50.942;6.900;2022-10-23T11:55:27;2.47;;;1.00;;
20095;SDS011;10207;50.942;6.900;2022-10-23T12:00:34;4.60;;;1.10;;
20095;SDS011;10207;50.942;6.900;2022-10-23T12:03:03;4.20;;;0.70;;
20095;SDS011;10207;50.942;6.900;2022-10-23T12:05:30;5.35;;;2.63;;
20095;SDS011;10207;50.942;6.900;2022-10-23T12:07:58;3.10;;;0.43;;
20095;SDS011;10207;50.942;6.900;2022-10-23T12:10:43;1.88;;;0.90;;
20095;SDS011;10207;50.942;6.900;2022-10-23T12:13:26;3.75;;;0.60;;
20095;SDS011;10207;50.942;6.900;2022-10-23T12:15:52;2.85;;;0.90;;
20095;SDS011;10207;50.942;6.900;2022-10-23T12:18:19;7.57;;;1.15;;
20095;SDS011;10207;50.942;6.900;2022-10-23T12:23:16;1.80;;;0.50;;
20095;SDS011;10207;50.942;6.900;2022-10-23T12:28:25;2.75;;;1.25;;
20095;SDS011;10207;50.942;6.900;2022-10-23T12:38:30;5.35;;;1.40;;
20095;SDS011;10207;50.942;6.900;2022-10-23T12:41:30;4.57;;;1.20;;
20095;SDS011;10207;50.942;6.900;2022-10-23T12:43:55;7.55;;;0.90;;
20095;SDS011;10207;50.942;6.900;2022-10-23T12:49:00;1.95;;;0.90;;
20095;SDS011;10207;50.942;6.900;2022-10-23T12:51:30;2.63;;;1.02;;
20095;SDS011;10207;50.942;6.900;2022-10-23T12:53:56;1.73;;;0.75;;
20095;SDS011;10207;50.942;6.900;2022-10-23T12:56:23;4.45;;;1.10;;
20095;SDS011;10207;50.942;6.900;2022-10-23T12:58:53;9.32;;;1.15;;
20095;SDS011;10207;50.942;6.900;2022-10-23T13:01:26;5.85;;;1.20;;
20095;SDS011;10207;50.942;6.900;2022-10-23T13:03:56;1.75;;;0.80;;
20095;SDS011;10207;50.942;6.900;2022-10-23T13:06:23;7.25;;;1.30;;
20095;SDS011;10207;50.942;6.900;2022-10-23T13:08:48;3.72;;;0.93;;
20095;SDS011;10207;50.942;6.900;2022-10-23T13:11:33;2.10;;;0.93;;
20095;SDS011;10207;50.942;6.900;2022-10-23T13:14:09;5.45;;;1.15;;
20095;SDS011;10207;50.942;6.900;2022-10-23T13:16:35;5.07;;;1.27;;
20095;SDS011;10207;50.942;6.900;2022-10-23T13:19:00;8.82;;;1.52;;
20095;SDS011;10207;50.942;6.900;2022-10-23T13:21:27;11.10;;;1.45;;
20095;SDS011;10207;50.942;6.900;2022-10-23T13:23:53;2.65;;;0.90;;
20095;SDS011;10207;50.942;6.900;2022-10-23T13:28:58;5.65;;;1.08;;
20095;SDS011;10207;50.942;6.900;2022-10-23T13:34:02;5.22;;;1.42;;
20095;SDS011;10207;50.942;6.900;2022-10-23T13:36:29;2.47;;;0.98;;
20095;SDS011;10207;50.942;6.900;2022-10-23T13:41:27;3.95;;;1.20;;
20095;SDS011;10207;50.942;6.900;2022-10-23T13:43:53;4.38;;;1.88;;
20095;SDS011;10207;50.942;6.900;2022-10-23T13:46:20;4.75;;;1.15;;
20095;SDS011;10207;50.942;6.900;2022-10-23T13:48:46;4.05;;;1.30;;
20095;SDS011;10207;50.942;6.900;2022-10-23T13:51:19;6.13;;;1.23;;
20095;SDS011;10207;50.942;6.900;2022-10-23T13:53:45;5.15;;;1.10;;
20095;SDS011;10207;50.942;6.900;2022-10-23T13:56:12;4.38;;;1.30;;
20095;SDS011;10207;50.942;6.900;2022-10-23T13:58:38;6.50;;;2.17;;
20095;SDS011;10207;50.942;6.900;2022-10-23T14:01:04;3.35;;;1.13;;
20095;SDS011;10207;50.942;6.900;2022-10-23T14:03:30;4.80;;;1.45;;
20095;SDS011;10207;50.942;6.900;2022-10-23T14:05:55;2.13;;;0.95;;
20095;SDS011;10207;50.942;6.900;2022-10-23T14:08:21;4.85;;;1.27;;
20095;SDS011;10207;50.942;6.900;2022-10-23T14:10:47;6.60;;;1.30;;
20095;SDS011;10207;50.942;6.900;2022-10-23T14:13:12;4.10;;;1.40;;
20095;SDS011;10207;50.942;6.900;2022-10-23T14:15:38;2.30;;;1.00;;
20095;SDS011;10207;50.942;6.900;2022-10-23T14:18:04;3.20;;;1.15;;
20095;SDS011;10207;50.942;6.900;2022-10-23T14:20:30;5.55;;;1.40;;
20095;SDS011;10207;50.942;6.900;2022-10-23T14:22:56;5.68;;;1.33;;
20095;SDS011;10207;50.942;6.900;2022-10-23T14:25:22;2.58;;;1.10;;
20095;SDS011;10207;50.942;6.900;2022-10-23T14:27:48;2.53;;;1.02;;
20095;SDS011;10207;50.942;6.900;2022-10-23T14:30:13;4.15;;;1.20;;
20095;SDS011;10207;50.942;6.900;2022-10-23T14:32:39;7.57;;;2.15;;
20095;SDS011;10207;50.942;6.900;2022-10-23T14:35:05;3.65;;;1.55;;
20095;SDS011;10207;50.942;6.900;2022-10-23T14:37:32;4.95;;;1.40;;
20095;SDS011;10207;50.942;6.900;2022-10-23T14:39:58;2.85;;;1.73;;
20095;SDS011;10207;50.942;6.900;2022-10-23T14:42:24;4.25;;;1.77;;
20095;SDS011;10207;50.942;6.900;2022-10-23T14:44:50;4.45;;;1.20;;
20095;SDS011;10207;50.942;6.900;2022-10-23T14:47:16;3.88;;;1.50;;
20095;SDS011;10207;50.942;6.900;2022-10-23T14:49:44;3.65;;;1.70;;
20095;SDS011;10207;50.942;6.900;2022-10-23T14:52:11;7.07;;;1.90;;
20095;SDS011;10207;50.942;6.900;2022-10-23T14:54:36;7.07;;;2.08;;
20095;SDS011;10207;50.942;6.900;2022-10-23T14:57:02;3.70;;;1.40;;
20095;SDS011;10207;50.942;6.900;2022-10-23T14:59:28;6.80;;;1.60;;
20095;SDS011;10207;50.942;6.900;2022-10-23T15:01:54;3.65;;;1.67;;
20095;SDS011;10207;50.942;6.900;2022-10-23T15:04:20;5.55;;;1.58;;
20095;SDS011;10207;50.942;6.900;2022-10-23T15:06:45;6.97;;;1.60;;
20095;SDS011;10207;50.942;6.900;2022-10-23T15:09:12;2.60;;;1.13;;
20095;SDS011;10207;50.942;6.900;2022-10-23T15:11:37;4.55;;;1.17;;
20095;SDS011;10207;50.942;6.900;2022-10-23T15:14:03;4.18;;;1.63;;
20095;SDS011;10207;50.942;6.900;2022-10-23T15:16:29;3.97;;;2.22;;
20095;SDS011;10207;50.942;6.900;2022-10-23T15:18:55;6.97;;;2.33;;
20095;SDS011;10207;50.942;6.900;2022-10-23T15:21:21;5.53;;;1.70;;
20095;SDS011;10207;50.942;6.900;2022-10-23T15:23:47;6.03;;;1.77;;
20095;SDS011;10207;50.942;6.900;2022-10-23T15:26:14;4.78;;;1.70;;
20095;SDS011;10207;50.942;6.900;2022-10-23T15:28:44;5.80;;;1.65;;
20095;SDS011;10207;50.942;6.900;2022-10-23T15:33:55;5.20;;;1.88;;
20095;SDS011;10207;50.942;6.900;2022-10-23T15:36:21;5.60;;;2.00;;
20095;SDS011;10207;50.942;6.900;2022-10-23T15:38:47;3.35;;;1.60;;
20095;SDS011;10207;50.942;6.900;2022-10-23T15:41:14;6.35;;;1.95;;
20095;SDS011;10207;50.942;6.900;2022-10-23T15:43:40;3.97;;;1.80;;
20095;SDS011;10207;50.942;6.900;2022-10-23T15:46:06;6.57;;;1.58;;
20095;SDS011;10207;50.942;6.900;2022-10-23T15:48:31;3.47;;;1.48;;
20095;SDS011;10207;50.942;6.900;2022-10-23T15:50:57;5.32;;;1.70;;
20095;SDS011;10207;50.942;6.900;2022-10-23T15:53:24;4.65;;;1.63;;
20095;SDS011;10207;50.942;6.900;2022-10-23T15:55:49;6.07;;;1.95;;
20095;SDS011;10207;50.942;6.900;2022-10-23T15:58:15;6.75;;;1.98;;
20095;SDS011;10207;50.942;6.900;2022-10-23T16:00:41;6.95;;;1.65;;
20095;SDS011;10207;50.942;6.900;2022-10-23T16:03:06;10.70;;;2.20;;
20095;SDS011;10207;50.942;6.900;2022-10-23T16:05:32;4.32;;;1.80;;
20095;SDS011;10207;50.942;6.900;2022-10-23T16:07:58;4.22;;;2.13;;
20095;SDS011;10207;50.942;6.900;2022-10-23T16:10:24;8.55;;;1.75;;
20095;SDS011;10207;50.942;6.900;2022-10-23T16:12:50;7.47;;;2.03;;
20095;SDS011;10207;50.942;6.900;2022-10-23T16:15:15;3.55;;;1.42;;
20095;SDS011;10207;50.942;6.900;2022-10-23T16:17:41;8.27;;;2.22;;
20095;SDS011;10207;50.942;6.900;2022-10-23T16:20:07;8.25;;;2.05;;
20095;SDS011;10207;50.942;6.900;2022-10-23T16:22:33;5.00;;;1.95;;
20095;SDS011;10207;50.942;6.900;2022-10-23T16:24:58;8.52;;;2.17;;
20095;SDS011;10207;50.942;6.900;2022-10-23T16:27:24;4.90;;;1.77;;
20095;SDS011;10207;50.942;6.900;2022-10-23T16:29:50;5.03;;;2.25;;
20095;SDS011;10207;50.942;6.900;2022-10-23T16:32:16;5.13;;;1.70;;
20095;SDS011;10207;50.942;6.900;2022-10-23T16:34:42;4.57;;;2.08;;
20095;SDS011;10207;50.942;6.900;2022-10-23T16:37:08;5.95;;;2.22;;